Time;durP1;ratioP1;P1;durP2;ratioP2;P2;SDS_P1;SDS_P2;PMS_P1;PMS_P2;Temp;Humidity;BMP_temperature;BMP_pressure;BME280_temperature;BME280_humidity;BME280_pressure;Samples;Min_cycle;Max_cycle;Signal;HPM_P1;HPM_P2
2023/06/17 00:01:51;;;;;;;;;;;;;;;;;;5055312;28;19943;-70
2023/06/17 00:04:18;;;;;;;;;;;;;;;;;;5055163;28;19937;-69
2023/06/17 00:06:44;;;;;;;;;;;;;;;;;;5055528;28;19931;-69
2023/06/17 00:09:10;;;;;;;;;;;;;;;;;;5054860;28;19961;-67
2023/06/17 00:11:36;;;;;;;;;;;;;;;;;;5055379;28;19929;-68
2023/06/17 00:14:02;;;;;;;;;;;;;;;;;;5055216;28;19984;-70
2023/06/17 00:16:32;;;;;;;;;;;;;;;;;;5055017;28;19992;-70
2023/06/17 00:18:58;;;;;;;;;;;;;;;;;;5054962;28;19941;-70
2023/06/17 00:21:25;;;;;;;;;;;;;;;;;;5055000;28;19929;-69
2023/06/17 00:23:51;;;;;;;;;;;;;;;;;;5054833;28;19937;-69
2023/06/17 00:26:17;;;;;;;;;;;;;;;;;;5054895;28;19937;-69
2023/06/17 00:28:43;;;;;;;;;;;;;;;;;;5054958;28;20419;-69
2023/06/17 00:31:10;;;;;;;;;;;;;;;;;;5054631;28;19970;-70
2023/06/17 00:33:36;;;;;;;;;;;;;;;;;;5054600;28;19940;-72
2023/06/17 00:36:02;;;;;;;;;;;;;;;;;;5054548;28;20357;-71
2023/06/17 00:38:28;;;;;;;;;;;;;;;;;;5054588;28;19937;-71
2023/06/17 00:40:54;;;;;;;;;;;;;;;;;;5054483;28;19930;-72
2023/06/17 00:43:21;;;;;;;;;;;;;;;;;;5054603;28;19984;-72
2023/06/17 00:45:47;;;;;;;;;;;;;;;;;;5054517;28;19945;-72
2023/06/17 00:48:13;;;;;;;;;;;;;;;;;;5054239;28;19961;-72
2023/06/17 00:50:39;;;;;;;;;;;;;;;;;;5054690;28;19942;-71
2023/06/17 00:53:06;;;;;;;;;;;;;;;;;;5054660;28;20282;-71
2023/06/17 00:55:32;;;;;;;;;;;;;;;;;;5054227;28;19958;-72
2023/06/17 00:57:59;;;;;;;;;;;;;;;;;;5054312;28;19927;-68
2023/06/17 01:00:25;;;;;;;;;;;;;;;;;;5054451;28;19974;-72
2023/06/17 01:02:51;;;;;;;;;;;;;;;;;;5054157;28;20358;-72
2023/06/17 01:05:18;;;;;;;;;;;;;;;;;;5054257;28;19933;-72
2023/06/17 01:07:45;;;;;;;;;;;;;;;;;;5053991;28;19967;-73
2023/06/17 01:10:12;;;;;;;;;;;;;;;;;;5053927;28;20396;-72
2023/06/17 01:12:38;;;;;;;;;;;;;;;;;;5054050;28;19938;-73
2023/06/17 01:15:04;;;;;;;;;;;;;;;;;;5053902;28;20046;-72
2023/06/17 01:17:30;;;;;;;;;;;;;;;;;;5053961;28;19936;-72
2023/06/17 01:19:57;;;;;;;;;;;;;;;;;;5054381;28;19943;-71
2023/06/17 01:22:23;;;;;;;;;;;;;;;;;;5054481;28;19937;-75
2023/06/17 01:24:50;;;;;;;;;;;;;;;;;;5053849;28;20028;-70
2023/06/17 01:27:17;;;;;;;;;;;;;;;;;;5053761;28;19947;-69
2023/06/17 01:29:47;;;;;;;;;;;;;;;;;;5053653;28;19954;-69
2023/06/17 01:32:13;;;;;;;;;;;;;;;;;;5053510;28;20339;-73
2023/06/17 01:34:39;;;;;;;;;;;;;;;;;;5053393;28;19945;-70
2023/06/17 01:37:05;;;;;;;;;;;;;;;;;;5054065;28;20409;-71
2023/06/17 01:39:31;;;;;;;;;;;;;;;;;;5053698;28;19954;-72
2023/06/17 01:41:58;;;;;;;;;;;;;;;;;;5053608;28;20383;-73
2023/06/17 01:44:24;;;;;;;;;;;;;;;;;;5054078;28;19941;-72
2023/06/17 01:46:50;;;;;;;;;;;;;;;;;;5047326;28;19940;-71
2023/06/17 01:49:16;;;;;;;;;;;;;;;;;;5037877;28;20020;-71
2023/06/17 01:51:42;;;;;;;;;;;;;;;;;;5041080;28;19954;-73
2023/06/17 01:54:08;;;;;;;;;;;;;;;;;;5053099;28;20421;-70
2023/06/17 01:56:35;;;;;;;;;;;;;;;;;;5054724;28;20023;-72
2023/06/17 01:59:01;;;;;;;;;;;;;;;;;;5043883;28;20328;-71
2023/06/17 02:01:27;;;;;;;;;;;;;;;;;;5035518;28;19947;-71
2023/06/17 02:03:53;;;;;;;;;;;;;;;;;;5036186;28;20380;-70
2023/06/17 02:06:19;;;;;;;;;;;;;;;;;;5043383;28;19937;-70
2023/06/17 02:08:47;;;;;;;;;;;;;;;;;;5051803;28;20415;-69
2023/06/17 02:11:14;;;;;;;;;;;;;;;;;;5053247;28;19975;-70
2023/06/17 02:13:40;;;;;;;;;;;;;;;;;;5053393;28;20396;-71
2023/06/17 02:16:07;;;;;;;;;;;;;;;;;;5053470;28;19937;-70
2023/06/17 02:18:33;;;;;;;;;;;;;;;;;;5041751;28;19946;-70
2023/06/17 02:20:59;;;;;;;;;;;;;;;;;;5046733;28;19956;-68
2023/06/17 02:23:26;;;;;;;;;;;;;;;;;;5052060;28;20434;-70
2023/06/17 02:25:52;;;;;;;;;;;;;;;;;;5035423;28;19948;-70
2023/06/17 02:28:18;;;;;;;;;;;;;;;;;;5052764;28;19982;-71
2023/06/17 02:30:44;;;;;;;;;;;;;;;;;;5051557;28;20453;-69
2023/06/17 02:33:11;;;;;;;;;;;;;;;;;;5051479;28;19948;-71
2023/06/17 02:35:38;;;;;;;;;;;;;;;;;;5051291;28;20021;-71
2023/06/17 02:38:05;;;;;;;;;;;;;;;;;;5051674;28;20041;-70
2023/06/17 02:40:31;;;;;;;;;;;;;;;;;;5046172;28;19959;-66
2023/06/17 02:42:57;;;;;;;;;;;;;;;;;;5051723;28;20395;-69
2023/06/17 02:45:24;;;;;;;;;;;;;;;;;;5050992;28;19937;-69
2023/06/17 02:47:50;;;;;;;;;;;;;;;;;;5043506;28;19946;-70
2023/06/17 02:50:16;;;;;;;;;;;;;;;;;;5036732;28;19941;-70
2023/06/17 02:52:47;;;;;;;;;;;;;;;;;;5038854;28;19941;-71
2023/06/17 02:55:15;;;;;;;;;;;;;;;;;;5075846;28;19953;-71
2023/06/17 02:57:41;;;;;;;;;;;;;;;;;;5068985;28;19943;-70
2023/06/17 03:00:08;;;;;;;;;;;;;;;;;;5056554;28;19940;-72
2023/06/17 03:02:34;;;;;;;;;;;;;;;;;;5056352;28;19934;-71
2023/06/17 03:05:01;;;;;;;;;;;;;;;;;;5056187;28;20521;-72
2023/06/17 03:07:29;;;;;;;;;;;;;;;;;;5056548;28;20061;-70
2023/06/17 03:09:55;;;;;;;;;;;;;;;;;;5046343;28;19952;-73
2023/06/17 03:12:21;;;;;;;;;;;;;;;;;;5043389;28;20062;-71
2023/06/17 03:14:47;;;;;;;;;;;;;;;;;;5040109;28;19947;-73
2023/06/17 03:17:13;;;;;;;;;;;;;;;;;;5036194;28;20387;-68
2023/06/17 03:19:40;;;;;;;;;;;;;;;;;;5036330;28;19936;-69
2023/06/17 03:22:06;;;;;;;;;;;;;;;;;;5036210;28;20033;-70
2023/06/17 03:24:33;;;;;;;;;;;;;;;;;;5036433;28;19941;-69
2023/06/17 03:26:59;;;;;;;;;;;;;;;;;;5036535;28;19965;-69
2023/06/17 03:29:25;;;;;;;;;;;;;;;;;;5035553;28;19940;-68
2023/06/17 03:31:56;;;;;;;;;;;;;;;;;;5035930;28;19953;-67
2023/06/17 03:34:22;;;;;;;;;;;;;;;;;;5035763;28;19944;-64
2023/06/17 03:36:50;;;;;;;;;;;;;;;;;;5036103;28;19999;-66
2023/06/17 03:39:16;;;;;;;;;;;;;;;;;;5036051;28;19943;-67
2023/06/17 03:41:42;;;;;;;;;;;;;;;;;;5035586;28;20319;-67
2023/06/17 03:44:08;;;;;;;;;;;;;;;;;;5039261;28;19964;-69
2023/06/17 03:46:34;;;;;;;;;;;;;;;;;;5043346;28;20031;-68
2023/06/17 03:49:02;;;;;;;;;;;;;;;;;;5039977;28;19994;-67
2023/06/17 03:51:28;;;;;;;;;;;;;;;;;;5039168;28;19953;-68
2023/06/17 03:53:54;;;;;;;;;;;;;;;;;;5054569;28;20353;-68
2023/06/17 03:56:20;;;;;;;;;;;;;;;;;;5036719;28;19947;-67
2023/06/17 03:58:46;;;;;;;;;;;;;;;;;;5039652;28;20306;-67
2023/06/17 04:01:13;;;;;;;;;;;;;;;;;;5043560;28;19961;-68
2023/06/17 04:03:40;;;;;;;;;;;;;;;;;;5040532;28;19954;-66
2023/06/17 04:06:06;;;;;;;;;;;;;;;;;;5044073;28;20328;-65
2023/06/17 04:08:35;;;;;;;;;;;;;;;;;;5051050;28;19969;-65
2023/06/17 04:11:02;;;;;;;;;;;;;;;;;;5050867;28;19997;-65
2023/06/17 04:13:28;;;;;;;;;;;;;;;;;;5044648;28;20372;-65
2023/06/17 04:15:55;;;;;;;;;;;;;;;;;;5035603;28;19994;-65
2023/06/17 04:18:21;;;;;;;;;;;;;;;;;;5035600;28;20048;-65
2023/06/17 04:20:49;;;;;;;;;;;;;;;;;;5050531;28;19950;-69
2023/06/17 04:23:15;;;;;;;;;;;;;;;;;;5041058;28;19976;-66
2023/06/17 04:25:43;;;;;;;;;;;;;;;;;;5033802;28;20399;-66
2023/06/17 04:28:12;;;;;;;;;;;;;;;;;;5034260;28;19941;-65
2023/06/17 04:30:40;;;;;;;;;;;;;;;;;;5034382;28;20373;-65
2023/06/17 04:33:11;;;;;;;;;;;;;;;;;;5044517;28;19963;-66
2023/06/17 04:35:41;;;;;;;;;;;;;;;;;;5053902;28;19986;-65
2023/06/17 04:38:07;;;;;;;;;;;;;;;;;;5054245;28;20344;-65
2023/06/17 04:40:36;;;;;;;;;;;;;;;;;;5047613;28;19977;-65
2023/06/17 04:43:02;;;;;;;;;;;;;;;;;;5036265;28;20039;-66
2023/06/17 04:45:29;;;;;;;;;;;;;;;;;;5039042;28;20418;-67
2023/06/17 04:47:55;;;;;;;;;;;;;;;;;;5042586;28;19980;-67
2023/06/17 04:50:23;;;;;;;;;;;;;;;;;;5043799;28;19970;-69
2023/06/17 04:52:51;;;;;;;;;;;;;;;;;;5042404;28;20413;-70
2023/06/17 04:55:18;;;;;;;;;;;;;;;;;;5033377;28;19939;-67
2023/06/17 04:57:44;;;;;;;;;;;;;;;;;;5033780;28;20379;-74
2023/06/17 05:00:10;;;;;;;;;;;;;;;;;;5044677;28;20055;-66
2023/06/17 05:02:37;;;;;;;;;;;;;;;;;;5042613;28;19965;-66
2023/06/17 05:05:03;;;;;;;;;;;;;;;;;;5033410;28;19972;-65
2023/06/17 05:07:29;;;;;;;;;;;;;;;;;;5033536;28;20397;-64
2023/06/17 05:09:56;;;;;;;;;;;;;;;;;;5033002;28;20000;-65
2023/06/17 05:12:22;;;;;;;;;;;;;;;;;;5033922;28;20290;-67
2023/06/17 05:14:48;;;;;;;;;;;;;;;;;;5033449;28;19943;-66
2023/06/17 05:17:14;;;;;;;;;;;;;;;;;;5033492;28;19986;-67
2023/06/17 05:19:40;;;;;;;;;;;;;;;;;;5032975;28;20036;-65
2023/06/17 05:22:07;;;;;;;;;;;;;;;;;;5033534;28;19964;-65
2023/06/17 05:24:33;;;;;;;;;;;;;;;;;;5033345;28;19958;-66
2023/06/17 05:26:59;;;;;;;;;;;;;;;;;;5034461;28;20338;-65
2023/06/17 05:29:28;;;;;;;;;;;;;;;;;;5039572;28;20330;-66
2023/06/17 05:31:54;;;;;;;;;;;;;;;;;;5041809;28;19996;-66
2023/06/17 05:34:20;;;;;;;;;;;;;;;;;;5033345;28;19962;-67
2023/06/17 05:36:46;;;;;;;;;;;;;;;;;;5040104;28;19965;-66
2023/06/17 05:39:13;;;;;;;;;;;;;;;;;;5048558;28;19973;-65
2023/06/17 05:41:39;;;;;;;;;;;;;;;;;;5042217;28;20060;-65
2023/06/17 05:44:05;;;;;;;;;;;;;;;;;;5042544;28;19969;-66
2023/06/17 05:46:31;;;;;;;;;;;;;;;;;;5041355;28;20307;-66
2023/06/17 05:48:58;;;;;;;;;;;;;;;;;;5042435;28;19966;-65
2023/06/17 05:51:25;;;;;;;;;;;;;;;;;;5042364;28;20032;-66
2023/06/17 05:53:51;;;;;;;;;;;;;;;;;;5040123;28;19972;-67
2023/06/17 05:56:17;;;;;;;;;;;;;;;;;;5039983;28;19965;-68
2023/06/17 05:58:44;;;;;;;;;;;;;;;;;;5041711;28;19965;-67
2023/06/17 06:01:10;;;;;;;;;;;;;;;;;;5043032;28;20414;-68
2023/06/17 06:03:36;;;;;;;;;;;;;;;;;;5041083;28;19958;-67
2023/06/17 06:06:02;;;;;;;;;;;;;;;;;;5041902;28;19964;-67
2023/06/17 06:08:29;;;;;;;;;;;;;;;;;;5040463;28;20007;-66
2023/06/17 06:10:55;;;;;;;;;;;;;;;;;;5042524;28;20192;-66
2023/06/17 06:13:21;;;;;;;;;;;;;;;;;;5044462;28;19965;-66
2023/06/17 06:15:47;;;;;;;;;;;;;;;;;;5044281;28;19921;-66
2023/06/17 06:18:14;;;;;;;;;;;;;;;;;;5040786;28;19969;-66
2023/06/17 06:20:40;;;;;;;;;;;;;;;;;;5042185;28;19993;-68
2023/06/17 06:23:06;;;;;;;;;;;;;;;;;;5046095;28;20037;-67
2023/06/17 06:25:33;;;;;;;;;;;;;;;;;;5045112;28;19966;-65
2023/06/17 06:27:59;;;;;;;;;;;;;;;;;;5043742;28;19981;-66
2023/06/17 06:30:25;;;;;;;;;;;;;;;;;;5042988;28;20362;-69
2023/06/17 06:32:51;;;;;;;;;;;;;;;;;;5045472;28;20441;-66
2023/06/17 06:35:17;;;;;;;;;;;;;;;;;;5041403;28;20426;-68
2023/06/17 06:37:44;;;;;;;;;;;;;;;;;;5036354;28;19962;-68
2023/06/17 06:40:10;;;;;;;;;;;;;;;;;;5036469;28;20426;-67
2023/06/17 06:42:36;;;;;;;;;;;;;;;;;;5036614;28;19958;-67
2023/06/17 06:45:02;;;;;;;;;;;;;;;;;;5036980;28;20055;-67
2023/06/17 06:47:29;;;;;;;;;;;;;;;;;;5048870;28;19997;-68
2023/06/17 06:49:55;;;;;;;;;;;;;;;;;;5048201;28;20342;-67
2023/06/17 06:52:21;;;;;;;;;;;;;;;;;;5036197;28;19970;-67
2023/06/17 06:54:47;;;;;;;;;;;;;;;;;;5037298;28;20420;-67
2023/06/17 06:57:14;;;;;;;;;;;;;;;;;;5036060;28;20012;-65
2023/06/17 06:59:40;;;;;;;;;;;;;;;;;;5035912;28;20366;-67
2023/06/17 07:02:06;;;;;;;;;;;;;;;;;;5036041;28;19961;-67
2023/06/17 07:04:32;;;;;;;;;;;;;;;;;;5035913;28;20044;-67
2023/06/17 07:06:58;;;;;;;;;;;;;;;;;;5036222;28;19958;-66
2023/06/17 07:09:25;;;;;;;;;;;;;;;;;;5039395;28;20350;-66
2023/06/17 07:11:51;;;;;;;;;;;;;;;;;;5038243;28;19980;-67
2023/06/17 07:14:17;;;;;;;;;;;;;;;;;;5035715;28;19958;-67
2023/06/17 07:16:43;;;;;;;;;;;;;;;;;;5035797;28;19962;-67
2023/06/17 07:19:09;;;;;;;;;;;;;;;;;;5048288;28;19957;-67
2023/06/17 07:21:36;;;;;;;;;;;;;;;;;;5040425;28;19958;-68
2023/06/17 07:24:02;;;;;;;;;;;;;;;;;;5037512;28;19965;-67
2023/06/17 07:26:28;;;;;;;;;;;;;;;;;;5052439;28;19965;-65
2023/06/17 07:28:55;;;;;;;;;;;;;;;;;;5046875;28;19992;-68
2023/06/17 07:31:21;;;;;;;;;;;;;;;;;;5054923;28;20620;-74
2023/06/17 07:33:47;;;;;;;;;;;;;;;;;;5055104;28;20044;-75
2023/06/17 07:36:13;;;;;;;;;;;;;;;;;;5044046;28;19985;-74
2023/06/17 07:38:40;;;;;;;;;;;;;;;;;;5035850;28;19974;-74
2023/06/17 07:41:06;;;;;;;;;;;;;;;;;;5037803;28;20060;-69
2023/06/17 07:43:32;;;;;;;;;;;;;;;;;;5043250;28;19983;-69
2023/06/17 07:45:59;;;;;;;;;;;;;;;;;;5038057;28;20334;-69
2023/06/17 07:48:25;;;;;;;;;;;;;;;;;;5035563;28;20073;-69
2023/06/17 07:50:51;;;;;;;;;;;;;;;;;;5036042;28;20373;-69
2023/06/17 07:53:18;;;;;;;;;;;;;;;;;;5035559;28;20016;-68
2023/06/17 07:55:44;;;;;;;;;;;;;;;;;;5018326;28;20013;-68
2023/06/17 07:58:10;;;;;;;;;;;;;;;;;;5048990;28;19968;-66
2023/06/17 08:00:36;;;;;;;;;;;;;;;;;;5035449;28;19961;-66
2023/06/17 08:03:02;;;;;;;;;;;;;;;;;;5035416;28;19965;-66
2023/06/17 08:05:29;;;;;;;;;;;;;;;;;;5035317;28;19961;-67
2023/06/17 08:07:55;;;;;;;;;;;;;;;;;;5035382;28;19986;-66
2023/06/17 08:10:21;;;;;;;;;;;;;;;;;;5044216;28;19972;-66
2023/06/17 08:12:48;;;;;;;;;;;;;;;;;;5037310;28;19972;-66
2023/06/17 08:15:14;;;;;;;;;;;;;;;;;;5035670;28;19962;-66
2023/06/17 08:17:42;;;;;;;;;;;;;;;;;;5035147;28;19965;-66
2023/06/17 08:20:09;;;;;;;;;;;;;;;;;;5035079;28;19924;-68
2023/06/17 08:22:36;;;;;;;;;;;;;;;;;;5043838;28;19966;-65
2023/06/17 08:25:03;;;;;;;;;;;;;;;;;;5044206;28;20009;-66
2023/06/17 08:27:29;;;;;;;;;;;;;;;;;;5049835;28;19968;-69
2023/06/17 08:29:55;;;;;;;;;;;;;;;;;;5035532;28;19964;-67
2023/06/17 08:32:22;;;;;;;;;;;;;;;;;;5040099;28;19997;-69
2023/06/17 08:34:48;;;;;;;;;;;;;;;;;;5045414;28;20468;-70
2023/06/17 08:37:15;;;;;;;;;;;;;;;;;;5047854;28;19961;-70
2023/06/17 08:39:42;;;;;;;;;;;;;;;;;;5054751;28;19995;-71
2023/06/17 08:42:08;;;;;;;;;;;;;;;;;;5054756;28;20012;-68
2023/06/17 08:44:35;;;;;;;;;;;;;;;;;;5045808;28;20046;-72
2023/06/17 08:47:02;;;;;;;;;;;;;;;;;;5045561;28;20491;-69
2023/06/17 08:49:28;;;;;;;;;;;;;;;;;;5044611;28;19996;-68
2023/06/17 08:51:55;;;;;;;;;;;;;;;;;;5045660;28;19957;-70
2023/06/17 08:54:21;;;;;;;;;;;;;;;;;;5043211;28;20145;-69
2023/06/17 08:56:47;;;;;;;;;;;;;;;;;;5047616;28;19973;-69
2023/06/17 08:59:13;;;;;;;;;;;;;;;;;;5044512;28;20460;-69
2023/06/17 09:01:39;;;;;;;;;;;;;;;;;;5046449;28;19957;-70
2023/06/17 09:04:06;;;;;;;;;;;;;;;;;;5040882;28;20379;-70
2023/06/17 09:06:32;;;;;;;;;;;;;;;;;;5047352;28;20048;-71
2023/06/17 09:08:58;;;;;;;;;;;;;;;;;;5043919;28;20005;-71
2023/06/17 09:11:25;;;;;;;;;;;;;;;;;;5046745;28;19972;-72
2023/06/17 09:13:51;;;;;;;;;;;;;;;;;;5041603;28;20008;-72
2023/06/17 09:16:17;;;;;;;;;;;;;;;;;;5046918;28;20084;-71
2023/06/17 09:18:43;;;;;;;;;;;;;;;;;;5042598;28;19961;-71
2023/06/17 09:21:10;;;;;;;;;;;;;;;;;;5048959;28;19962;-70
2023/06/17 09:23:36;;;;;;;;;;;;;;;;;;5041488;28;20372;-71
2023/06/17 09:26:02;;;;;;;;;;;;;;;;;;5044412;28;19958;-69
2023/06/17 09:28:28;;;;;;;;;;;;;;;;;;5044426;28;20363;-70
2023/06/17 09:30:57;;;;;;;;;;;;;;;;;;5045615;28;19969;-72
2023/06/17 09:33:23;;;;;;;;;;;;;;;;;;5041808;28;20012;-71
2023/06/17 09:35:49;;;;;;;;;;;;;;;;;;5044429;28;19973;-72
2023/06/17 09:38:15;;;;;;;;;;;;;;;;;;5024777;28;20387;-69
2023/06/17 09:40:41;;;;;;;;;;;;;;;;;;5044691;28;19961;-72
2023/06/17 09:43:09;;;;;;;;;;;;;;;;;;5026792;28;19973;-69
2023/06/17 09:45:35;;;;;;;;;;;;;;;;;;5041356;28;19962;-70
2023/06/17 09:48:02;;;;;;;;;;;;;;;;;;5044589;28;20028;-69
2023/06/17 09:50:30;;;;;;;;;;;;;;;;;;5042057;28;19958;-69
2023/06/17 09:52:56;;;;;;;;;;;;;;;;;;5052878;28;20024;-68
2023/06/17 09:55:22;;;;;;;;;;;;;;;;;;5039005;28;19961;-68
2023/06/17 09:57:53;;;;;;;;;;;;;;;;;;5048151;28;19965;-70
2023/06/17 10:00:19;;;;;;;;;;;;;;;;;;5030943;28;19961;-69
2023/06/17 10:02:45;;;;;;;;;;;;;;;;;;5045053;28;19993;-70
2023/06/17 10:05:12;;;;;;;;;;;;;;;;;;5047247;28;20016;-68
2023/06/17 10:07:39;;;;;;;;;;;;;;;;;;5034006;28;20054;-72
2023/06/17 10:10:06;;;;;;;;;;;;;;;;;;5054979;28;19972;-68
2023/06/17 10:12:32;;;;;;;;;;;;;;;;;;5074356;28;20439;-69
2023/06/17 10:14:58;;;;;;;;;;;;;;;;;;5071631;28;19961;-70
2023/06/17 10:17:25;;;;;;;;;;;;;;;;;;5056054;28;19968;-68
2023/06/17 10:19:51;;;;;;;;;;;;;;;;;;5059601;28;19973;-69
2023/06/17 10:22:17;;;;;;;;;;;;;;;;;;5042259;28;20011;-69
2023/06/17 10:24:43;;;;;;;;;;;;;;;;;;5075908;28;19960;-68
2023/06/17 10:27:10;;;;;;;;;;;;;;;;;;5075896;28;19960;-68
2023/06/17 10:29:36;;;;;;;;;;;;;;;;;;5066192;28;19980;-68
2023/06/17 10:32:02;;;;;;;;;;;;;;;;;;5038571;28;20061;-67
2023/06/17 10:34:28;;;;;;;;;;;;;;;;;;5057448;28;19992;-70
2023/06/17 10:36:54;;;;;;;;;;;;;;;;;;5045105;28;20016;-69
2023/06/17 10:39:21;;;;;;;;;;;;;;;;;;5051361;28;19981;-70
2023/06/17 10:41:48;;;;;;;;;;;;;;;;;;5045382;28;19977;-71
2023/06/17 10:44:15;;;;;;;;;;;;;;;;;;5045656;28;20322;-68
2023/06/17 10:46:41;;;;;;;;;;;;;;;;;;5044759;28;20044;-69
2023/06/17 10:49:07;;;;;;;;;;;;;;;;;;5045738;28;20064;-65
2023/06/17 10:51:33;;;;;;;;;;;;;;;;;;5043799;28;19930;-67
2023/06/17 10:53:59;;;;;;;;;;;;;;;;;;5040840;28;20471;-67
2023/06/17 10:56:26;;;;;;;;;;;;;;;;;;5041223;28;19960;-68
2023/06/17 10:58:53;;;;;;;;;;;;;;;;;;5040576;28;19980;-69
2023/06/17 11:01:19;;;;;;;;;;;;;;;;;;5038570;28;19962;-67
2023/06/17 11:03:45;;;;;;;;;;;;;;;;;;5038139;28;19962;-68
2023/06/17 11:06:13;;;;;;;;;;;;;;;;;;5037236;28;20545;-69
2023/06/17 11:08:39;;;;;;;;;;;;;;;;;;5034406;28;19973;-68
2023/06/17 11:11:05;;;;;;;;;;;;;;;;;;5039510;28;19955;-68
2023/06/17 11:13:31;;;;;;;;;;;;;;;;;;5039969;28;19965;-69
2023/06/17 11:15:58;;;;;;;;;;;;;;;;;;5040537;28;19957;-68
2023/06/17 11:18:25;;;;;;;;;;;;;;;;;;5040310;28;20092;-67
2023/06/17 11:20:51;;;;;;;;;;;;;;;;;;5044259;28;20341;-69
2023/06/17 11:23:17;;;;;;;;;;;;;;;;;;5047500;28;19965;-68
2023/06/17 11:25:43;;;;;;;;;;;;;;;;;;5043979;28;19957;-67
2023/06/17 11:28:10;;;;;;;;;;;;;;;;;;5044399;28;20068;-67
2023/06/17 11:30:36;;;;;;;;;;;;;;;;;;5045907;28;20023;-67
2023/06/17 11:33:02;;;;;;;;;;;;;;;;;;5038250;28;20038;-68
2023/06/17 11:35:28;;;;;;;;;;;;;;;;;;5035511;28;20310;-67
2023/06/17 11:37:55;;;;;;;;;;;;;;;;;;5035642;28;19961;-68
2023/06/17 11:40:21;;;;;;;;;;;;;;;;;;5035504;28;19981;-67
2023/06/17 11:42:47;;;;;;;;;;;;;;;;;;5048138;28;19993;-68
2023/06/17 11:45:14;;;;;;;;;;;;;;;;;;5038591;28;19976;-67
2023/06/17 11:47:40;;;;;;;;;;;;;;;;;;5044211;28;19955;-66
2023/06/17 11:50:07;;;;;;;;;;;;;;;;;;5044098;28;19958;-67
2023/06/17 11:52:33;;;;;;;;;;;;;;;;;;5044284;28;19964;-66
2023/06/17 11:54:59;;;;;;;;;;;;;;;;;;5054791;28;19961;-64
2023/06/17 11:57:26;;;;;;;;;;;;;;;;;;5054867;28;19958;-66
2023/06/17 11:59:52;;;;;;;;;;;;;;;;;;5054990;28;19970;-66
2023/06/17 12:02:18;;;;;;;;;;;;;;;;;;5048410;28;19918;-65
2023/06/17 12:04:45;;;;;;;;;;;;;;;;;;5046966;28;19958;-67
2023/06/17 12:07:11;;;;;;;;;;;;;;;;;;5045303;28;19986;-67
2023/06/17 12:09:37;;;;;;;;;;;;;;;;;;5043534;28;19980;-67
2023/06/17 12:12:03;;;;;;;;;;;;;;;;;;5047194;28;19948;-66
2023/06/17 12:14:30;;;;;;;;;;;;;;;;;;5050310;28;20306;-67
2023/06/17 12:16:56;;;;;;;;;;;;;;;;;;5045740;28;19954;-66
2023/06/17 12:19:22;;;;;;;;;;;;;;;;;;5044623;28;19957;-67
2023/06/17 12:21:48;;;;;;;;;;;;;;;;;;5045088;28;19959;-67
2023/06/17 12:24:15;;;;;;;;;;;;;;;;;;5048822;28;19916;-66
2023/06/17 12:26:41;;;;;;;;;;;;;;;;;;5047362;28;19916;-67
2023/06/17 12:29:10;;;;;;;;;;;;;;;;;;5046543;28;20273;-66
2023/06/17 12:31:36;;;;;;;;;;;;;;;;;;5042851;28;19940;-67
2023/06/17 12:34:03;;;;;;;;;;;;;;;;;;5046954;28;19924;-66
2023/06/17 12:36:29;;;;;;;;;;;;;;;;;;5049070;28;20370;-66
2023/06/17 12:38:55;;;;;;;;;;;;;;;;;;5045574;28;20025;-67
2023/06/17 12:41:21;;;;;;;;;;;;;;;;;;5047238;28;19994;-67
2023/06/17 12:43:48;;;;;;;;;;;;;;;;;;5046453;28;20362;-66
2023/06/17 12:46:14;;;;;;;;;;;;;;;;;;5048409;28;19947;-67
2023/06/17 12:48:41;;;;;;;;;;;;;;;;;;5045723;28;19980;-67
2023/06/17 12:51:08;;;;;;;;;;;;;;;;;;5046182;28;20416;-67
2023/06/17 12:53:34;;;;;;;;;;;;;;;;;;5026754;28;20036;-67
2023/06/17 12:56:00;;;;;;;;;;;;;;;;;;5047327;28;19908;-67
2023/06/17 12:58:26;;;;;;;;;;;;;;;;;;5048432;28;19909;-67
2023/06/17 13:00:53;;;;;;;;;;;;;;;;;;5045196;28;20008;-66
2023/06/17 13:03:19;;;;;;;;;;;;;;;;;;5047021;28;19916;-66
2023/06/17 13:05:45;;;;;;;;;;;;;;;;;;5043294;28;20377;-67
2023/06/17 13:08:11;;;;;;;;;;;;;;;;;;5050756;28;19923;-67
2023/06/17 13:10:37;;;;;;;;;;;;;;;;;;5053356;28;20381;-67
2023/06/17 13:13:05;;;;;;;;;;;;;;;;;;5052807;28;19912;-67
2023/06/17 13:15:31;;;;;;;;;;;;;;;;;;5051714;28;19956;-67
2023/06/17 13:17:57;;;;;;;;;;;;;;;;;;5052796;28;20290;-67
2023/06/17 13:20:23;;;;;;;;;;;;;;;;;;5053530;28;20377;-67
2023/06/17 13:22:49;;;;;;;;;;;;;;;;;;5053396;28;19916;-67
2023/06/17 13:25:16;;;;;;;;;;;;;;;;;;5053533;28;19958;-67
2023/06/17 13:27:42;;;;;;;;;;;;;;;;;;5053485;28;19913;-67
2023/06/17 13:30:09;;;;;;;;;;;;;;;;;;5052949;28;19995;-66
2023/06/17 13:32:35;;;;;;;;;;;;;;;;;;5053232;28;19962;-66
2023/06/17 13:35:02;;;;;;;;;;;;;;;;;;5053600;28;19909;-66
2023/06/17 13:37:29;;;;;;;;;;;;;;;;;;5053342;28;19909;-66
2023/06/17 13:39:55;;;;;;;;;;;;;;;;;;5053686;28;19932;-66
2023/06/17 13:42:22;;;;;;;;;;;;;;;;;;5051634;28;19916;-67
2023/06/17 13:44:48;;;;;;;;;;;;;;;;;;5052516;28;20070;-67
2023/06/17 13:47:14;;;;;;;;;;;;;;;;;;5052608;28;19909;-66
2023/06/17 13:49:40;;;;;;;;;;;;;;;;;;5052847;28;19917;-66
2023/06/17 13:52:07;;;;;;;;;;;;;;;;;;5053186;28;19908;-68
2023/06/17 13:54:33;;;;;;;;;;;;;;;;;;5053699;28;19912;-67
2023/06/17 13:56:59;;;;;;;;;;;;;;;;;;5051173;28;20365;-67
2023/06/17 13:59:25;;;;;;;;;;;;;;;;;;5043695;28;19909;-67
2023/06/17 14:01:51;;;;;;;;;;;;;;;;;;5040787;28;19913;-67
2023/06/17 14:04:18;;;;;;;;;;;;;;;;;;5043261;28;19909;-67
2023/06/17 14:06:46;;;;;;;;;;;;;;;;;;5041645;28;19920;-67
2023/06/17 14:09:12;;;;;;;;;;;;;;;;;;5042506;28;19916;-67
2023/06/17 14:11:38;;;;;;;;;;;;;;;;;;5043188;28;20062;-66
2023/06/17 14:14:04;;;;;;;;;;;;;;;;;;5041275;28;20000;-67
2023/06/17 14:16:31;;;;;;;;;;;;;;;;;;5040155;28;19913;-66
2023/06/17 14:18:57;;;;;;;;;;;;;;;;;;5033798;28;20015;-66
2023/06/17 14:21:23;;;;;;;;;;;;;;;;;;5033739;28;19915;-67
2023/06/17 14:23:49;;;;;;;;;;;;;;;;;;5033000;28;19992;-67
2023/06/17 14:26:16;;;;;;;60.35;28.63;;;;;;;;;;5033420;28;20835;-67
2023/06/17 14:28:43;;;;;;;;;;;;;;;;;;5033920;28;20030;-66
2023/06/17 14:31:09;;;;;;;;;;;;;;;;;;5033890;28;19905;-67
2023/06/17 14:33:35;;;;;;;;;;;;;;;;;;5033881;28;20004;-67
2023/06/17 14:36:02;;;;;;;;;;;;;;;;;;5033931;28;19912;-68
2023/06/17 14:38:28;;;;;;;;;;;;;;;;;;5033368;28;19912;-68
2023/06/17 14:40:54;;;;;;;;;;;;;;;;;;5033389;28;20278;-68
2023/06/17 14:43:20;;;;;;;;;;;;;;;;;;5036048;28;19913;-68
2023/06/17 14:45:46;;;;;;;;;;;;;;;;;;5037434;28;19905;-67
2023/06/17 14:48:13;;;;;;;;;;;;;;;;;;5037451;28;19940;-68
2023/06/17 14:50:39;;;;;;;;;;;;;;;;;;5037590;28;19999;-68
2023/06/17 14:53:05;;;;;;;;;;;;;;;;;;5037485;28;19911;-68
2023/06/17 14:55:32;;;;;;;;;;;;;;;;;;5037129;28;19909;-68
2023/06/17 14:57:58;;;;;;;;;;;;;;;;;;5037549;28;20200;-68
2023/06/17 15:00:24;;;;;;;;;;;;;;;;;;5019568;28;19908;-68
2023/06/17 15:02:54;;;;;;;;;;;;;;;;;;5037103;28;19905;-67
2023/06/17 15:05:20;;;;;;;;;;;;;;;;;;5036923;28;19912;-68
2023/06/17 15:07:46;;;;;;;;;;;;;;;;;;5036938;28;19905;-67
2023/06/17 15:10:12;;;;;;;;;;;;;;;;;;5019049;28;19913;-68
2023/06/17 15:12:41;;;;;;;;;;;;;;;;;;5036905;28;19912;-68
2023/06/17 15:15:08;;;;;;;;;;;;;;;;;;5036294;28;19912;-68
2023/06/17 15:17:34;;;;;;;;;;;;;;;;;;5036132;28;19905;-68
2023/06/17 15:20:00;;;;;;;;;;;;;;;;;;5036262;28;19912;-68
2023/06/17 15:22:27;;;;;;;;;;;;;;;;;;5036100;28;19994;-68
2023/06/17 15:24:53;;;;;;;;;;;;;;;;;;5036006;28;19905;-67
2023/06/17 15:27:19;;;;;;;;;;;;;;;;;;5036065;28;19905;-67
2023/06/17 15:29:45;;;;;;;;;;;;;;;;;;5036152;28;19909;-67
2023/06/17 15:32:12;;;;;;;64.23;28.90;;;;;;;;;;5034995;28;20496;-67
2023/06/17 15:34:38;;;;;;;;;;;;;;;;;;5035912;28;20045;-67
2023/06/17 15:37:06;;;;;;;62.28;29.08;;;;;;;;;;5035753;28;19996;-67
2023/06/17 15:39:33;;;;;;;;;;;;;;;;;;5035902;28;20493;-67
2023/06/17 15:41:59;;;;;;;;;;;;;;;;;;5036112;28;20007;-68
2023/06/17 15:44:25;;;;;;;;;;;;;;;;;;5036181;28;19905;-67
2023/06/17 15:46:52;;;;;;;88.65;32.00;;;;;;;;;;5034509;28;20426;-67
2023/06/17 15:49:18;;;;;;;;;;;;;;;;;;5035879;28;20040;-67
2023/06/17 15:51:44;;;;;;;89.82;32.08;;;;;;;;;;5034402;28;20835;-67
2023/06/17 15:54:11;;;;;;;;;;;;;;;;;;5053416;23;20053;-67
2023/06/17 15:56:38;;;;;;;85.97;31.53;;;;;;;;;;5034245;28;20450;-67
2023/06/17 15:59:04;;;;;;;;;;;;;;;;;;5035655;28;20029;-67
2023/06/17 16:01:30;;;;;;;88.20;31.95;;;;;;;;;;5034422;28;20449;-67
2023/06/17 16:03:57;;;;;;;;;;;;;;;;;;5035529;28;20025;-67
2023/06/17 16:06:23;;;;;;;91.45;32.20;;;;;;;;;;5034203;28;20501;-68
2023/06/17 16:08:51;;;;;;;;;;;;;;;;;;5035526;28;20030;-67
2023/06/17 16:11:18;;;;;;;90.43;32.05;;;;;;;;;;5033933;28;20430;-67
2023/06/17 16:13:44;;;;;;;;;;;;;;;;;;5035405;28;20034;-67
2023/06/17 16:16:11;;;;;;;87.78;31.75;;;;;;;;;;5029137;28;20907;-66
2023/06/17 16:18:37;;;;;;;;;;;;;;;;;;5035136;28;20033;-66
2023/06/17 16:21:03;;;;;;;88.20;31.92;;;;;;;;;;5023951;28;20419;-66
2023/06/17 16:23:30;;;;;;;;;;;;;;;;;;5023911;28;20026;-66
2023/06/17 16:25:58;;;;;;;96.25;32.85;;;;;;;;;;5022695;28;20476;-67
2023/06/17 16:28:24;;;;;;;;;;;;;;;;;;5027645;28;20029;-66
2023/06/17 16:30:51;;;;;;;101.03;33.42;;;;;;;;;;5023306;28;20440;-66
2023/06/17 16:33:17;;;;;;;;;;;;;;;;;;5026452;28;20064;-66